Terminal Aerodrome Forecast
Issued by NWS

Home | Current Version | Previous Version | Text Only | Print | Product List | Glossary On
Versions: 1 2 3 4 5 6 7 8 9 10 11 12
000
FTUS45 KBYZ 200521
TAFLVM
TAF
KLVM 200521Z 2006/2106 11010KT P6SM VCSH FEW060 BKN140
     FM200900 VRB06KT P6SM SCT140
     FM201600 29012KT P6SM FEW120 SCT200
     FM210300 21008KT P6SM BKN200=

USA.gov is the U.S. government's official web portal to all federal, state and local government web resources and services.